createdAt,value
2023-04-13T00:02:06.494Z,76.28
2023-04-13T00:04:34.221Z,76.69
2023-04-13T00:07:03.655Z,76.31
2023-04-13T00:09:33.494Z,76.79
2023-04-13T00:11:59.976Z,77.23
2023-04-13T00:14:35.652Z,77.18
2023-04-13T00:17:03.426Z,77.85
2023-04-13T00:19:30.087Z,77.41
2023-04-13T00:21:56.528Z,77.04
2023-04-13T00:24:22.986Z,77.44
2023-04-13T00:26:49.507Z,77.79
2023-04-13T00:29:16.101Z,77.30
2023-04-13T00:31:42.967Z,77.46
2023-04-13T00:34:09.433Z,77.45
2023-04-13T00:36:35.847Z,77.88
2023-04-13T00:39:02.352Z,78.51
2023-04-13T00:41:28.857Z,78.60
2023-04-13T00:43:55.279Z,78.31
2023-04-13T00:46:22.701Z,78.42
2023-04-13T00:48:50.008Z,78.53
2023-04-13T00:51:16.458Z,78.89
2023-04-13T00:53:42.869Z,78.87
2023-04-13T00:56:09.365Z,78.44
2023-04-13T00:58:36.181Z,79.18
2023-04-13T01:01:02.642Z,78.97
2023-04-13T01:03:30.046Z,78.35
2023-04-13T01:05:56.626Z,78.10
2023-04-13T01:08:23.092Z,77.25
2023-04-13T01:10:49.520Z,77.56
2023-04-13T01:13:15.945Z,77.84
2023-04-13T01:15:42.843Z,77.00
2023-04-13T01:18:10.189Z,77.84
2023-04-13T01:20:37.292Z,77.93
2023-04-13T01:23:03.760Z,77.96
2023-04-13T01:25:31.171Z,78.67
2023-04-13T01:27:57.605Z,78.57
2023-04-13T01:30:26.443Z,77.99
2023-04-13T01:32:53.449Z,77.89
2023-04-13T01:35:20.359Z,77.76
2023-04-13T01:37:47.310Z,77.71
2023-04-13T01:40:13.890Z,77.88
2023-04-13T01:42:40.352Z,77.30
2023-04-13T01:45:06.801Z,77.72
2023-04-13T01:47:33.255Z,77.82
2023-04-13T01:50:00.132Z,77.83
2023-04-13T01:52:28.073Z,77.69
2023-04-13T01:54:56.551Z,77.29
2023-04-13T01:57:23.188Z,77.53
2023-04-13T01:59:49.628Z,78.54
2023-04-13T02:02:17.706Z,78.72
2023-04-13T02:04:44.271Z,78.30
2023-04-13T02:07:12.615Z,78.68
2023-04-13T02:09:39.032Z,78.36
2023-04-13T02:12:05.475Z,77.93
2023-04-13T02:14:32.194Z,78.55
2023-04-13T02:16:59.322Z,78.65
2023-04-13T02:19:25.790Z,78.35
2023-04-13T02:21:53.521Z,79.24
2023-04-13T02:24:19.952Z,79.97
2023-04-13T02:26:46.387Z,79.67
2023-04-13T02:29:12.821Z,79.03
2023-04-13T02:31:44.287Z,79.14
2023-04-13T02:34:11.523Z,79.26
2023-04-13T02:36:38.546Z,80.14
2023-04-13T02:39:05.044Z,77.52
2023-04-13T02:41:31.486Z,76.74
2023-04-13T02:43:58.200Z,77.28
2023-04-13T02:46:24.870Z,76.77
2023-04-13T02:48:51.368Z,77.03
2023-04-13T02:51:17.844Z,75.66
2023-04-13T02:53:44.247Z,75.48
2023-04-13T02:56:10.740Z,76.96
2023-04-13T02:58:37.176Z,76.96
2023-04-13T03:01:03.696Z,76.71
2023-04-13T03:03:30.595Z,76.12
2023-04-13T03:05:57.766Z,77.02
2023-04-13T03:08:24.179Z,77.00
2023-04-13T03:10:51.720Z,76.01
2023-04-13T03:13:18.168Z,75.96
2023-04-13T03:15:44.638Z,76.39
2023-04-13T03:18:11.076Z,76.64
2023-04-13T03:20:37.515Z,75.16
2023-04-13T03:23:06.063Z,75.41
2023-04-13T03:25:33.925Z,74.49
2023-04-13T03:28:00.783Z,74.29
2023-04-13T03:30:27.248Z,73.62
2023-04-13T03:32:53.726Z,74.07
2023-04-13T03:35:20.245Z,72.84
2023-04-13T03:37:46.964Z,73.40
2023-04-13T03:40:13.898Z,74.41
2023-04-13T03:42:40.379Z,74.11
2023-04-13T03:45:06.892Z,73.87
2023-04-13T03:47:33.443Z,73.34
2023-04-13T03:49:59.937Z,73.20
2023-04-13T03:52:26.413Z,73.21
2023-04-13T03:54:52.922Z,72.19
2023-04-13T03:57:19.460Z,72.24
2023-04-13T03:59:45.928Z,71.49
2023-04-13T04:02:12.460Z,72.04
2023-04-13T04:04:38.911Z,71.97
2023-04-13T04:07:05.775Z,71.41
2023-04-13T04:09:32.182Z,71.67
2023-04-13T04:11:58.621Z,71.50
2023-04-13T04:14:25.085Z,71.69
2023-04-13T04:16:51.524Z,71.98
2023-04-13T04:19:17.978Z,70.86
2023-04-13T04:21:44.986Z,71.61
2023-04-13T04:24:12.712Z,70.55
2023-04-13T04:26:40.420Z,70.35
2023-04-13T04:29:09.061Z,71.60
2023-04-13T04:31:37.481Z,71.61
2023-04-13T04:34:04.156Z,71.42
2023-04-13T04:36:30.632Z,71.04
2023-04-13T04:39:02.944Z,71.88
2023-04-13T04:41:31.435Z,73.16
2023-04-13T04:44:03.623Z,73.33
2023-04-13T04:46:30.112Z,73.01
2023-04-13T04:49:00.863Z,73.40
2023-04-13T04:51:28.218Z,73.72
2023-04-13T04:53:54.797Z,74.47
2023-04-13T04:56:21.391Z,73.17
2023-04-13T04:58:47.794Z,73.35
2023-04-13T05:01:14.419Z,73.35
2023-04-13T05:03:40.873Z,73.89
2023-04-13T05:06:07.283Z,74.00
2023-04-13T05:08:34.067Z,72.69
2023-04-13T05:11:00.747Z,74.10
2023-04-13T05:13:27.157Z,73.99
2023-04-13T05:15:53.594Z,73.88
2023-04-13T05:18:20.062Z,74.77
2023-04-13T05:20:47.425Z,74.55
2023-04-13T05:23:13.843Z,73.95
2023-04-13T05:25:40.784Z,73.29
2023-04-13T05:28:07.248Z,73.61
2023-04-13T05:30:34.295Z,73.69
2023-04-13T05:33:05.706Z,73.66
2023-04-13T05:35:32.214Z,74.53
2023-04-13T05:38:00.360Z,72.24
2023-04-13T05:40:26.793Z,72.16
2023-04-13T05:42:53.216Z,72.25
2023-04-13T05:45:19.675Z,72.07
2023-04-13T05:47:46.252Z,71.54
2023-04-13T05:50:13.197Z,71.00
2023-04-13T05:52:39.675Z,69.52
2023-04-13T05:55:06.960Z,67.16
2023-04-13T05:57:33.548Z,67.44
2023-04-13T05:59:59.976Z,67.99
2023-04-13T06:02:26.916Z,67.60
2023-04-13T06:04:55.471Z,66.02
2023-04-13T06:07:22.010Z,65.91
2023-04-13T06:09:48.423Z,65.45
2023-04-13T06:12:16.110Z,63.82
2023-04-13T06:14:43.118Z,64.29
2023-04-13T06:17:09.645Z,63.91
2023-04-13T06:19:36.106Z,64.59
2023-04-13T06:22:02.586Z,63.72
2023-04-13T06:24:29.010Z,64.24
2023-04-13T06:26:55.453Z,63.30
2023-04-13T06:29:21.882Z,63.49
2023-04-13T06:31:48.313Z,63.57
2023-04-13T06:34:14.850Z,64.56
2023-04-13T06:36:41.307Z,61.68
2023-04-13T06:39:09.529Z,63.05
2023-04-13T06:41:36.075Z,63.16
2023-04-13T06:44:02.707Z,62.95
2023-04-13T06:46:29.220Z,62.76
2023-04-13T06:48:56.272Z,63.46
2023-04-13T06:51:22.735Z,62.60
2023-04-13T06:53:49.298Z,63.12
2023-04-13T06:56:15.722Z,63.65
2023-04-13T06:58:42.157Z,63.26
2023-04-13T07:01:08.808Z,63.12
2023-04-13T07:03:35.455Z,62.22
2023-04-13T07:06:02.157Z,62.54
2023-04-13T07:08:28.599Z,61.00
2023-04-13T07:10:55.044Z,61.88
2023-04-13T07:13:21.825Z,61.25
2023-04-13T07:15:48.304Z,59.84
2023-04-13T07:18:14.802Z,60.12
2023-04-13T07:20:41.655Z,60.57
2023-04-13T07:23:08.240Z,59.82
2023-04-13T07:25:34.686Z,59.82
2023-04-13T07:28:01.444Z,59.02
2023-04-13T07:30:27.854Z,59.19
2023-04-13T07:32:54.320Z,59.37
2023-04-13T07:35:20.903Z,58.20
2023-04-13T07:37:51.507Z,59.10
2023-04-13T07:40:19.451Z,60.07
2023-04-13T07:42:47.460Z,59.82
2023-04-13T07:45:15.692Z,60.32
2023-04-13T07:47:42.232Z,61.46
2023-04-13T07:50:09.714Z,59.96
2023-04-13T07:52:36.149Z,59.88
2023-04-13T07:55:02.616Z,60.67
2023-04-13T07:57:29.092Z,59.62
2023-04-13T07:59:55.861Z,58.72
2023-04-13T08:02:22.934Z,58.53
2023-04-13T08:04:49.581Z,56.21
2023-04-13T08:07:16.386Z,57.29
2023-04-13T08:09:42.952Z,56.62
2023-04-13T08:12:09.429Z,56.94
2023-04-13T08:14:35.846Z,54.61
2023-04-13T08:17:04.268Z,56.10
2023-04-13T08:19:30.769Z,56.80
2023-04-13T08:21:57.208Z,54.87
2023-04-13T08:24:24.420Z,54.17
2023-04-13T08:26:52.415Z,54.43
2023-04-13T08:29:19.273Z,55.79
2023-04-13T08:31:45.751Z,54.89
2023-04-13T08:34:14.177Z,55.19
2023-04-13T08:36:40.639Z,55.20
2023-04-13T08:39:10.382Z,54.76
2023-04-13T08:41:39.847Z,55.27
2023-04-13T08:44:08.737Z,54.96
2023-04-13T08:46:35.167Z,55.60
2023-04-13T08:49:04.784Z,53.70
2023-04-13T08:51:32.404Z,52.43
2023-04-13T08:53:59.105Z,52.71
2023-04-13T08:56:37.639Z,51.49
2023-04-13T08:59:11.855Z,50.12
2023-04-13T09:01:39.373Z,51.46
2023-04-13T09:04:06.392Z,51.15
2023-04-13T09:06:35.824Z,50.14
2023-04-13T09:09:02.342Z,50.52
2023-04-13T09:11:29.159Z,51.07
2023-04-13T09:13:56.074Z,52.54
2023-04-13T09:16:22.890Z,51.19
2023-04-13T09:18:49.358Z,51.17
2023-04-13T09:21:15.799Z,52.84
2023-04-13T09:23:43.877Z,51.10
2023-04-13T09:26:10.422Z,51.34
2023-04-13T09:28:36.954Z,50.45
2023-04-13T09:31:03.866Z,50.69
2023-04-13T09:33:30.361Z,51.43
2023-04-13T09:35:56.874Z,51.36
2023-04-13T09:38:23.344Z,51.18
2023-04-13T09:40:49.804Z,50.20
2023-04-13T09:43:17.294Z,50.85
2023-04-13T09:45:46.903Z,50.58
2023-04-13T09:48:14.372Z,51.85
2023-04-13T09:50:40.927Z,52.44
2023-04-13T09:53:07.450Z,51.24
2023-04-13T09:55:33.926Z,51.01
2023-04-13T09:58:00.845Z,51.32
2023-04-13T10:00:28.211Z,50.12
2023-04-13T10:02:57.232Z,51.72
2023-04-13T10:05:28.921Z,52.09
2023-04-13T10:07:56.440Z,50.22
2023-04-13T10:10:22.981Z,49.34
2023-04-13T10:12:49.896Z,51.45
2023-04-13T10:15:16.821Z,50.43
2023-04-13T10:17:43.324Z,50.44
2023-04-13T10:20:14.039Z,50.93
2023-04-13T10:22:40.517Z,49.75
2023-04-13T10:25:07.411Z,49.54
2023-04-13T10:27:36.617Z,50.05
2023-04-13T10:30:04.780Z,49.12
2023-04-13T10:32:32.284Z,47.87
2023-04-13T10:34:58.784Z,49.07
2023-04-13T10:37:25.198Z,48.73
2023-04-13T10:39:51.748Z,46.59
2023-04-13T10:42:18.360Z,49.55
2023-04-13T10:44:44.907Z,47.52
2023-04-13T10:47:11.670Z,46.82
2023-04-13T10:49:38.197Z,45.21
2023-04-13T10:52:04.667Z,44.25
2023-04-13T10:54:31.170Z,46.56
2023-04-13T10:56:57.870Z,44.62
2023-04-13T10:59:24.322Z,47.27
2023-04-13T11:01:50.777Z,44.34
2023-04-13T11:04:19.022Z,44.89
2023-04-13T11:06:45.607Z,47.04
2023-04-13T11:09:15.946Z,45.86
2023-04-13T11:11:43.396Z,44.24
2023-04-13T11:14:09.835Z,44.83
2023-04-13T11:16:36.294Z,42.70
2023-04-13T11:19:02.978Z,43.90
2023-04-13T11:21:30.161Z,44.36
2023-04-13T11:23:56.584Z,44.04
2023-04-13T11:26:23.061Z,43.66
2023-04-13T11:28:49.491Z,48.20
2023-04-13T11:31:16.524Z,42.58
2023-04-13T11:33:44.682Z,41.46
2023-04-13T11:36:12.221Z,43.97
2023-04-13T11:38:38.804Z,44.37
2023-04-13T11:41:15.568Z,44.81
2023-04-13T11:43:43.243Z,44.63
2023-04-13T11:46:09.797Z,45.99
2023-04-13T11:48:36.243Z,43.97
2023-04-13T11:51:02.790Z,45.61
2023-04-13T11:53:30.251Z,43.62
2023-04-13T11:55:56.732Z,44.59
2023-04-13T11:58:23.236Z,45.56
2023-04-13T12:00:49.696Z,44.53
2023-04-13T12:03:34.530Z,43.36
2023-04-13T12:06:02.826Z,44.94
2023-04-13T12:08:33.989Z,42.38
2023-04-13T12:16:08.802Z,44.65
2023-04-13T12:18:43.694Z,45.08
2023-04-13T12:21:10.555Z,44.75
2023-04-13T12:23:37.108Z,42.59
2023-04-13T12:26:31.633Z,41.04
2023-04-13T12:28:52.331Z,42.00
2023-04-13T12:31:18.876Z,42.71
2023-04-13T12:33:45.414Z,41.57
2023-04-13T12:36:11.947Z,41.78
2023-04-13T12:38:38.516Z,42.75
2023-04-13T12:41:04.995Z,42.83
2023-04-13T12:43:31.492Z,42.71
2023-04-13T12:45:58.152Z,41.45
2023-04-13T12:48:24.704Z,43.75
2023-04-13T12:50:51.172Z,44.67
2023-04-13T12:53:17.701Z,43.32
2023-04-13T12:55:44.252Z,43.83
2023-04-13T12:58:10.853Z,43.86
2023-04-13T13:00:37.322Z,43.64
2023-04-13T13:03:13.754Z,42.81
2023-04-13T13:05:42.131Z,44.43
2023-04-13T13:08:09.248Z,43.38
2023-04-13T13:10:35.868Z,44.52
2023-04-13T13:13:04.147Z,45.51
2023-04-13T13:15:30.639Z,44.23
2023-04-13T13:17:57.121Z,44.45
2023-04-13T13:20:23.656Z,44.51
2023-04-13T13:22:50.161Z,43.94
2023-04-13T13:25:17.265Z,44.88
2023-04-13T13:28:10.138Z,43.70
2023-04-13T13:30:30.190Z,44.10
2023-04-13T13:32:56.676Z,45.30
2023-04-13T13:35:23.132Z,45.19
2023-04-13T13:37:49.592Z,45.56
2023-04-13T13:40:16.017Z,45.65
2023-04-13T13:45:11.876Z,46.00
2023-04-13T13:47:38.387Z,46.58
2023-04-13T13:50:05.071Z,45.28
2023-04-13T13:52:33.834Z,44.65
2023-04-13T13:55:00.272Z,44.15
2023-04-13T13:57:26.715Z,44.58
2023-04-13T13:59:53.113Z,43.77
2023-04-13T14:02:20.971Z,43.57
2023-04-13T14:04:47.494Z,45.04
2023-04-13T14:07:14.718Z,44.82
2023-04-13T14:09:41.289Z,45.21
2023-04-13T14:12:07.960Z,45.19
2023-04-13T14:14:34.440Z,46.41
2023-04-13T14:17:00.885Z,45.61
2023-04-13T14:19:27.393Z,46.84
2023-04-13T14:21:53.816Z,45.03
2023-04-13T14:24:20.222Z,45.09
2023-04-13T14:26:46.638Z,44.84
2023-04-13T14:29:13.057Z,44.58
2023-04-13T14:31:39.599Z,44.98
2023-04-13T14:34:06.363Z,44.08
2023-04-13T14:36:32.807Z,44.63
2023-04-13T14:39:00.692Z,45.61
2023-04-13T14:41:27.639Z,45.52
2023-04-13T14:43:54.078Z,44.59
2023-04-13T14:46:20.539Z,44.17
2023-04-13T14:48:47.024Z,44.93
2023-04-13T14:51:13.439Z,44.46
2023-04-13T14:53:39.853Z,44.40
2023-04-13T14:56:06.326Z,44.51
2023-04-13T14:58:32.798Z,45.18
2023-04-13T15:00:59.274Z,43.88
2023-04-13T15:03:26.026Z,43.67
2023-04-13T15:05:58.388Z,43.78
2023-04-13T15:08:29.203Z,43.89
2023-04-13T15:10:55.717Z,44.20
2023-04-13T15:13:22.142Z,43.97
2023-04-13T15:15:48.985Z,44.59
2023-04-13T15:18:15.707Z,44.00
2023-04-13T15:20:42.215Z,43.77
2023-04-13T15:23:08.691Z,43.56
2023-04-13T15:25:35.153Z,45.33
2023-04-13T15:28:01.586Z,44.80
2023-04-13T15:30:28.097Z,45.67
2023-04-13T15:32:54.624Z,44.54
2023-04-13T15:35:21.100Z,45.33
2023-04-13T15:37:47.527Z,44.19
2023-04-13T15:40:14.270Z,44.55
2023-04-13T15:42:40.796Z,44.77
2023-04-13T15:45:09.570Z,45.81
2023-04-13T15:47:36.832Z,44.21
2023-04-13T15:50:04.877Z,45.11
2023-04-13T15:52:31.331Z,44.81
2023-04-13T15:54:57.768Z,45.70
2023-04-13T15:57:24.225Z,45.63
2023-04-13T15:59:50.824Z,45.96
2023-04-13T16:02:17.398Z,46.83
2023-04-13T16:04:44.116Z,46.66
2023-04-13T16:07:14.188Z,46.42
2023-04-13T16:09:41.080Z,47.42
2023-04-13T16:12:11.146Z,46.75
2023-04-13T16:14:44.951Z,47.09
2023-04-13T16:17:11.699Z,47.39
2023-04-13T16:19:38.190Z,47.24
2023-04-13T16:22:10.614Z,47.69
2023-04-13T16:24:37.962Z,47.59
2023-04-13T16:27:04.394Z,48.69
2023-04-13T16:29:30.855Z,48.27
2023-04-13T16:31:57.311Z,48.34
2023-04-13T16:34:37.968Z,47.75
2023-04-13T16:37:04.938Z,47.18
2023-04-13T16:39:31.461Z,47.38
2023-04-13T16:41:57.913Z,47.71
2023-04-13T16:44:24.423Z,47.89
2023-04-13T16:49:22.021Z,47.81
2023-04-13T16:51:48.687Z,47.76
2023-04-13T16:54:16.636Z,47.22
2023-04-13T16:56:43.061Z,47.80
2023-04-13T16:59:09.482Z,48.21
2023-04-13T17:01:39.477Z,48.73
2023-04-13T17:04:06.425Z,48.20
2023-04-13T17:06:32.904Z,48.69
2023-04-13T17:08:59.542Z,49.05
2023-04-13T17:11:26.306Z,48.62
2023-04-13T17:13:52.869Z,48.55
2023-04-13T17:16:19.421Z,49.05
2023-04-13T17:18:46.045Z,49.91
2023-04-13T17:21:12.548Z,50.42
2023-04-13T17:23:40.582Z,49.63
2023-04-13T17:26:07.044Z,49.45
2023-04-13T17:28:33.473Z,49.87
2023-04-13T17:30:59.889Z,49.20
2023-04-13T17:33:28.294Z,50.33
2023-04-13T17:35:54.764Z,50.35
2023-04-13T17:38:21.242Z,50.53
2023-04-13T17:40:47.728Z,50.45
2023-04-13T17:43:14.194Z,51.42
2023-04-13T17:45:41.007Z,51.03
2023-04-13T17:48:07.490Z,51.15
2023-04-13T17:50:34.020Z,51.83
2023-04-13T17:53:04.545Z,52.17
2023-04-13T17:55:31.084Z,52.02
2023-04-13T17:57:57.509Z,52.06
2023-04-13T18:00:26.173Z,53.27
2023-04-13T18:02:52.859Z,53.80
2023-04-13T18:05:19.379Z,53.04
2023-04-13T18:07:45.889Z,52.85
2023-04-13T18:10:12.389Z,52.52
2023-04-13T18:12:41.981Z,54.21
2023-04-13T18:15:08.495Z,54.66
2023-04-13T18:17:34.952Z,56.29
2023-04-13T18:20:01.548Z,55.64
2023-04-13T18:22:28.098Z,57.13
2023-04-13T18:24:54.545Z,55.95
2023-04-13T18:27:21.411Z,56.94
2023-04-13T18:29:47.851Z,57.14
2023-04-13T18:32:17.101Z,56.90
2023-04-13T18:34:44.344Z,59.94
2023-04-13T18:37:11.563Z,59.33
2023-04-13T18:39:38.618Z,60.39
2023-04-13T18:42:05.066Z,60.14
2023-04-13T18:44:31.498Z,59.83
2023-04-13T18:46:58.069Z,61.39
2023-04-13T18:49:24.637Z,60.30
2023-04-13T18:51:51.109Z,61.22
2023-04-13T18:54:17.595Z,60.81
2023-04-13T18:56:44.018Z,60.58
2023-04-13T18:59:10.803Z,60.66
2023-04-13T19:01:37.326Z,60.44
2023-04-13T19:04:04.046Z,60.22
2023-04-13T19:06:31.072Z,59.37
2023-04-13T19:08:57.492Z,58.37
2023-04-13T19:11:24.455Z,59.77
2023-04-13T19:13:50.954Z,56.56
2023-04-13T19:16:17.976Z,58.81
2023-04-13T19:18:44.475Z,57.11
2023-04-13T19:21:11.002Z,56.09
2023-04-13T19:23:40.134Z,56.14
2023-04-13T19:26:07.014Z,56.18
2023-04-13T19:28:33.440Z,56.37
2023-04-13T19:30:59.947Z,58.12
2023-04-13T19:33:26.506Z,59.14
2023-04-13T19:35:53.022Z,58.13
2023-04-13T19:38:19.457Z,57.96
2023-04-13T19:40:45.877Z,58.31
2023-04-13T19:43:12.294Z,60.33
2023-04-13T19:45:39.601Z,61.53
2023-04-13T19:48:06.789Z,61.58
2023-04-13T19:50:33.390Z,62.50
2023-04-13T19:52:59.937Z,63.02
2023-04-13T19:55:27.367Z,63.81
2023-04-13T19:57:54.533Z,65.16
2023-04-13T20:00:21.089Z,65.19
2023-04-13T20:02:48.117Z,65.82
2023-04-13T20:05:14.712Z,66.25
2023-04-13T20:07:41.135Z,67.63
2023-04-13T20:10:07.581Z,68.07
2023-04-13T20:12:34.125Z,67.13
2023-04-13T20:15:04.006Z,66.39
2023-04-13T20:17:32.985Z,66.34
2023-04-13T20:20:00.324Z,66.80
2023-04-13T20:22:26.772Z,66.40
2023-04-13T20:24:53.255Z,66.18
2023-04-13T20:27:21.662Z,66.86
2023-04-13T20:29:49.010Z,67.33
2023-04-13T20:32:15.541Z,67.59
2023-04-13T20:34:41.951Z,67.21
2023-04-13T20:37:14.450Z,68.75
2023-04-13T20:39:50.105Z,67.88
2023-04-13T20:42:18.393Z,68.73
2023-04-13T20:44:44.922Z,68.28
2023-04-13T20:47:13.909Z,68.31
2023-04-13T20:49:48.020Z,66.76
2023-04-13T20:52:14.454Z,68.65
2023-04-13T20:54:40.916Z,68.13
2023-04-13T20:57:07.413Z,65.89
2023-04-13T20:59:34.865Z,64.70
2023-04-13T21:02:01.443Z,67.67
2023-04-13T21:04:27.964Z,65.87
2023-04-13T21:06:54.701Z,65.53
2023-04-13T21:09:21.186Z,64.09
2023-04-13T21:11:48.218Z,63.21
2023-04-13T21:14:16.384Z,62.79
2023-04-13T21:16:42.875Z,63.60
2023-04-13T21:19:09.372Z,64.47
2023-04-13T21:21:35.810Z,63.96
2023-04-13T21:24:02.337Z,65.50
2023-04-13T21:26:28.801Z,66.24
2023-04-13T21:28:55.386Z,66.46
2023-04-13T21:31:21.850Z,66.32
2023-04-13T21:33:48.300Z,65.76
2023-04-13T21:38:44.445Z,68.53
2023-04-13T21:41:10.879Z,68.59
2023-04-13T21:43:37.313Z,69.66
2023-04-13T21:46:03.958Z,70.02
2023-04-13T21:48:30.436Z,68.59
2023-04-13T21:50:57.981Z,68.75
2023-04-13T21:53:24.425Z,69.05
2023-04-13T21:55:50.859Z,68.37
2023-04-13T21:58:17.302Z,66.67
2023-04-13T22:00:43.748Z,64.60
2023-04-13T22:03:10.333Z,64.01
2023-04-13T22:05:36.850Z,64.67
2023-04-13T22:08:03.468Z,63.77
2023-04-13T22:10:29.910Z,63.43
2023-04-13T22:12:56.324Z,61.92
2023-04-13T22:15:22.841Z,62.88
2023-04-13T22:17:49.320Z,62.61
2023-04-13T22:20:15.785Z,63.65
2023-04-13T22:22:42.230Z,62.56
2023-04-13T22:25:08.680Z,63.38
2023-04-13T22:27:35.149Z,62.33
2023-04-13T22:30:01.904Z,62.82
2023-04-13T22:32:28.904Z,64.06
2023-04-13T22:34:55.429Z,64.35
2023-04-13T22:37:21.945Z,63.22
2023-04-13T22:39:48.421Z,64.28
2023-04-13T22:42:14.862Z,63.99
2023-04-13T22:44:41.320Z,64.26
2023-04-13T22:47:07.720Z,65.32
2023-04-13T22:49:34.215Z,65.66
2023-04-13T22:52:00.653Z,65.52
2023-04-13T22:54:27.128Z,66.71
2023-04-13T22:56:53.952Z,67.69
2023-04-13T22:59:20.421Z,68.07
2023-04-13T23:01:47.039Z,68.24
2023-04-13T23:04:15.880Z,67.34
2023-04-13T23:06:42.716Z,67.07
2023-04-13T23:09:09.197Z,66.87
2023-04-13T23:11:35.641Z,67.00
2023-04-13T23:14:02.375Z,67.39
2023-04-13T23:16:28.990Z,67.02
2023-04-13T23:18:55.421Z,67.57
2023-04-13T23:21:21.906Z,68.30
2023-04-13T23:23:48.356Z,68.10
2023-04-13T23:26:14.867Z,68.15
2023-04-13T23:28:41.304Z,67.54
2023-04-13T23:31:07.907Z,67.29
2023-04-13T23:33:34.392Z,67.53
2023-04-13T23:36:01.767Z,66.81
2023-04-13T23:38:28.240Z,66.98
2023-04-13T23:40:55.013Z,67.02
2023-04-13T23:43:21.521Z,66.97
2023-04-13T23:45:48.626Z,67.14
2023-04-13T23:48:15.105Z,66.70
2023-04-13T23:50:42.037Z,66.08
2023-04-13T23:53:08.479Z,66.56
2023-04-13T23:55:34.928Z,65.83
2023-04-13T23:58:01.372Z,66.44
